Weather at Turnbull Airport

Public forecast

Using degrees Fahrenheit for public forecast. Weather courtesy of forecast.io.

Closest aviation weather report (METAR) to Turnbull Airport

Closest report is Greater Rochester International Airport, 18.1 nm (33.4 km) NW. Retrieved 2020/11/25 11:54 UTC (26 minutes ago):

KROC 251154Z 18010G18KT 10SM BKN180 OVC250 06/M01 A3008 RMK AO2 SLP195 BINOVC S 60000 70003 T00561011 10056 20000 56014

Closest aviation forecast (TAF) to Turnbull Airport

Closest forecast is Greater Rochester International Airport, 18.1 nm (33.4 km) NW. Retrieved 2020/11/25 12:30 UTC (0 seconds ago):

TAF KROC 251127Z 2512/2612 18008KT P6SM SCT050 BKN150 FM251500 21012KT P6SM SCT080 BKN150 FM252100 18008KT 6SM -RA BR OVC025 FM260200 17006KT 5SM -RA BR OVC015